sensor_id;sensor_type;location;lat;lon;timestamp;pressure;altitude;pressure_sealevel;temperature;humidity
55801;BME280;41730;51.960;20.158;2022-07-11T00:02:09;100137.31;;;14.52;66.00
55801;BME280;41730;51.960;20.158;2022-07-11T00:05:04;100132.04;;;14.50;66.37
55801;BME280;41730;51.960;20.158;2022-07-11T00:07:33;100130.83;;;14.57;66.14
55801;BME280;41730;51.960;20.158;2022-07-11T00:10:02;100131.17;;;14.58;65.95
55801;BME280;41730;51.960;20.158;2022-07-11T00:12:31;100134.90;;;14.56;65.94
55801;BME280;41730;51.960;20.158;2022-07-11T00:15:00;100137.09;;;14.36;66.37
55801;BME280;41730;51.960;20.158;2022-07-11T00:17:29;100139.75;;;14.38;66.70
55801;BME280;41730;51.960;20.158;2022-07-11T00:19:58;100141.54;;;14.38;67.01
55801;BME280;41730;51.960;20.158;2022-07-11T00:22:27;100145.13;;;14.44;66.97
55801;BME280;41730;51.960;20.158;2022-07-11T00:24:56;100140.30;;;14.38;67.31
55801;BME280;41730;51.960;20.158;2022-07-11T00:27:25;100142.70;;;14.38;67.07
55801;BME280;41730;51.960;20.158;2022-07-11T00:29:55;100143.40;;;14.35;67.00
55801;BME280;41730;51.960;20.158;2022-07-11T00:32:24;100146.55;;;14.35;66.84
55801;BME280;41730;51.960;20.158;2022-07-11T00:34:52;100150.62;;;14.24;67.21
55801;BME280;41730;51.960;20.158;2022-07-11T00:37:21;100151.01;;;14.12;67.77
55801;BME280;41730;51.960;20.158;2022-07-11T00:39:50;100152.59;;;14.18;67.94
55801;BME280;41730;51.960;20.158;2022-07-11T00:42:19;100153.20;;;14.21;67.68
55801;BME280;41730;51.960;20.158;2022-07-11T00:44:49;100151.57;;;14.15;67.83
55801;BME280;41730;51.960;20.158;2022-07-11T00:47:17;100153.73;;;14.21;67.60
55801;BME280;41730;51.960;20.158;2022-07-11T00:49:47;100151.63;;;14.14;67.78
55801;BME280;41730;51.960;20.158;2022-07-11T00:52:16;100151.09;;;13.94;68.39
55801;BME280;41730;51.960;20.158;2022-07-11T00:54:46;100146.50;;;13.69;69.07
55801;BME280;41730;51.960;20.158;2022-07-11T00:57:15;100144.48;;;13.62;69.80
55801;BME280;41730;51.960;20.158;2022-07-11T00:59:44;100141.15;;;13.53;70.12
55801;BME280;41730;51.960;20.158;2022-07-11T01:02:13;100141.53;;;13.64;69.26
55801;BME280;41730;51.960;20.158;2022-07-11T01:04:42;100138.25;;;13.69;69.08
55801;BME280;41730;51.960;20.158;2022-07-11T01:07:12;100134.70;;;13.69;69.10
55801;BME280;41730;51.960;20.158;2022-07-11T01:09:42;100132.17;;;13.57;69.46
55801;BME280;41730;51.960;20.158;2022-07-11T01:12:11;100129.55;;;13.62;69.70
55801;BME280;41730;51.960;20.158;2022-07-11T01:14:51;100127.44;;;13.71;69.44
55801;BME280;41730;51.960;20.158;2022-07-11T01:17:21;100129.73;;;13.57;69.55
55801;BME280;41730;51.960;20.158;2022-07-11T01:19:50;100129.48;;;13.47;69.98
55801;BME280;41730;51.960;20.158;2022-07-11T01:22:23;100126.13;;;13.39;70.26
55801;BME280;41730;51.960;20.158;2022-07-11T01:24:54;100128.65;;;13.46;69.97
55801;BME280;41730;51.960;20.158;2022-07-11T01:27:24;100134.34;;;13.58;69.35
55801;BME280;41730;51.960;20.158;2022-07-11T01:29:53;100128.58;;;13.58;69.75
55801;BME280;41730;51.960;20.158;2022-07-11T01:32:23;100129.05;;;13.60;69.51
55801;BME280;41730;51.960;20.158;2022-07-11T01:34:51;100122.65;;;13.62;69.67
55801;BME280;41730;51.960;20.158;2022-07-11T01:37:21;100119.88;;;13.62;69.94
55801;BME280;41730;51.960;20.158;2022-07-11T01:39:50;100118.34;;;13.60;70.36
55801;BME280;41730;51.960;20.158;2022-07-11T01:42:19;100121.04;;;13.63;70.38
55801;BME280;41730;51.960;20.158;2022-07-11T01:44:49;100116.37;;;13.62;70.09
55801;BME280;41730;51.960;20.158;2022-07-11T01:47:18;100113.95;;;13.54;69.83
55801;BME280;41730;51.960;20.158;2022-07-11T01:49:48;100115.02;;;13.56;69.88
55801;BME280;41730;51.960;20.158;2022-07-11T01:52:17;100115.10;;;13.55;70.28
55801;BME280;41730;51.960;20.158;2022-07-11T01:54:46;100114.67;;;13.58;70.62
55801;BME280;41730;51.960;20.158;2022-07-11T01:57:16;100110.44;;;13.63;69.92
55801;BME280;41730;51.960;20.158;2022-07-11T01:59:45;100107.75;;;13.78;69.70
55801;BME280;41730;51.960;20.158;2022-07-11T02:02:15;100100.09;;;13.78;70.02
55801;BME280;41730;51.960;20.158;2022-07-11T02:04:45;100099.17;;;13.70;70.17
55801;BME280;41730;51.960;20.158;2022-07-11T02:07:14;100095.12;;;13.63;70.51
55801;BME280;41730;51.960;20.158;2022-07-11T02:10:03;100097.59;;;13.63;70.67
55801;BME280;41730;51.960;20.158;2022-07-11T02:12:32;100094.98;;;13.57;70.51
55801;BME280;41730;51.960;20.158;2022-07-11T02:15:08;100094.27;;;13.68;70.32
55801;BME280;41730;51.960;20.158;2022-07-11T02:17:38;100096.59;;;13.82;69.36
55801;BME280;41730;51.960;20.158;2022-07-11T02:20:09;100104.48;;;13.68;70.19
55801;BME280;41730;51.960;20.158;2022-07-11T02:22:45;100106.16;;;13.71;70.20
55801;BME280;41730;51.960;20.158;2022-07-11T02:25:14;100110.13;;;13.73;70.33
55801;BME280;41730;51.960;20.158;2022-07-11T02:27:43;100108.09;;;13.67;70.48
55801;BME280;41730;51.960;20.158;2022-07-11T02:30:12;100116.69;;;13.68;70.65
55801;BME280;41730;51.960;20.158;2022-07-11T02:32:41;100120.91;;;13.73;70.65
55801;BME280;41730;51.960;20.158;2022-07-11T02:35:10;100123.39;;;13.84;70.34
55801;BME280;41730;51.960;20.158;2022-07-11T02:37:39;100121.09;;;13.88;69.99
55801;BME280;41730;51.960;20.158;2022-07-11T02:40:10;100122.44;;;13.70;70.73
55801;BME280;41730;51.960;20.158;2022-07-11T02:42:39;100119.52;;;13.75;70.69
55801;BME280;41730;51.960;20.158;2022-07-11T02:45:10;100119.45;;;13.88;70.01
55801;BME280;41730;51.960;20.158;2022-07-11T02:47:39;100123.79;;;13.91;70.20
55801;BME280;41730;51.960;20.158;2022-07-11T02:50:11;100125.90;;;13.96;70.02
55801;BME280;41730;51.960;20.158;2022-07-11T02:52:41;100119.05;;;13.94;70.02
55801;BME280;41730;51.960;20.158;2022-07-11T02:55:11;100118.56;;;13.99;69.71
55801;BME280;41730;51.960;20.158;2022-07-11T02:57:41;100117.63;;;13.89;70.21
55801;BME280;41730;51.960;20.158;2022-07-11T03:00:13;100123.30;;;13.85;70.69
55801;BME280;41730;51.960;20.158;2022-07-11T03:02:44;100117.11;;;13.79;70.47
55801;BME280;41730;51.960;20.158;2022-07-11T03:05:13;100120.52;;;13.70;71.02
55801;BME280;41730;51.960;20.158;2022-07-11T03:07:43;100118.77;;;13.66;71.16
55801;BME280;41730;51.960;20.158;2022-07-11T03:10:12;100118.23;;;13.79;70.76
55801;BME280;41730;51.960;20.158;2022-07-11T03:12:41;100113.59;;;13.79;70.56
55801;BME280;41730;51.960;20.158;2022-07-11T03:15:11;100115.77;;;13.77;70.44
55801;BME280;41730;51.960;20.158;2022-07-11T03:17:41;100118.02;;;13.90;70.26
55801;BME280;41730;51.960;20.158;2022-07-11T03:20:11;100116.67;;;13.98;70.39
55801;BME280;41730;51.960;20.158;2022-07-11T03:23:00;100117.32;;;14.01;70.63
55801;BME280;41730;51.960;20.158;2022-07-11T03:26:08;100112.69;;;14.12;70.15
55801;BME280;41730;51.960;20.158;2022-07-11T03:29:19;100104.83;;;14.13;70.39
55801;BME280;41730;51.960;20.158;2022-07-11T03:32:14;100107.52;;;14.34;69.80
55801;BME280;41730;51.960;20.158;2022-07-11T03:35:23;100107.41;;;14.33;69.44
55801;BME280;41730;51.960;20.158;2022-07-11T03:38:44;100118.23;;;14.43;68.88
55801;BME280;41730;51.960;20.158;2022-07-11T03:41:43;100122.83;;;14.20;69.66
55801;BME280;41730;51.960;20.158;2022-07-11T03:44:44;100125.39;;;14.15;69.74
55801;BME280;41730;51.960;20.158;2022-07-11T03:47:44;100128.89;;;14.23;70.12
55801;BME280;41730;51.960;20.158;2022-07-11T03:50:15;100127.45;;;14.43;69.60
55801;BME280;41730;51.960;20.158;2022-07-11T03:52:44;100130.13;;;14.34;69.92
55801;BME280;41730;51.960;20.158;2022-07-11T03:55:13;100129.54;;;14.34;69.65
55801;BME280;41730;51.960;20.158;2022-07-11T03:57:45;100127.11;;;14.25;70.12
55801;BME280;41730;51.960;20.158;2022-07-11T04:00:15;100129.84;;;14.28;69.95
55801;BME280;41730;51.960;20.158;2022-07-11T04:02:45;100129.58;;;14.34;69.96
55801;BME280;41730;51.960;20.158;2022-07-11T04:05:18;100125.69;;;14.32;70.05
55801;BME280;41730;51.960;20.158;2022-07-11T04:07:47;100125.48;;;14.22;70.55
55801;BME280;41730;51.960;20.158;2022-07-11T04:10:17;100128.42;;;14.15;71.08
55801;BME280;41730;51.960;20.158;2022-07-11T04:12:46;100127.80;;;14.23;70.89
55801;BME280;41730;51.960;20.158;2022-07-11T04:15:23;100117.24;;;14.23;70.87
55801;BME280;41730;51.960;20.158;2022-07-11T04:18:06;100116.13;;;14.29;70.93
55801;BME280;41730;51.960;20.158;2022-07-11T04:21:07;100117.12;;;14.49;70.32
55801;BME280;41730;51.960;20.158;2022-07-11T04:23:57;100113.95;;;14.47;70.58
55801;BME280;41730;51.960;20.158;2022-07-11T04:26:42;100116.19;;;14.48;70.51
55801;BME280;41730;51.960;20.158;2022-07-11T04:29:40;100118.85;;;14.46;70.26
55801;BME280;41730;51.960;20.158;2022-07-11T04:32:28;100112.96;;;14.50;70.21
55801;BME280;41730;51.960;20.158;2022-07-11T04:35:18;100111.39;;;14.52;70.25
55801;BME280;41730;51.960;20.158;2022-07-11T04:38:21;100106.55;;;14.63;70.13
55801;BME280;41730;51.960;20.158;2022-07-11T04:41:09;100101.14;;;14.68;70.22
55801;BME280;41730;51.960;20.158;2022-07-11T04:43:38;100103.94;;;14.73;70.11
55801;BME280;41730;51.960;20.158;2022-07-11T04:46:07;100101.69;;;14.65;70.36
55801;BME280;41730;51.960;20.158;2022-07-11T04:48:36;100100.05;;;14.56;71.02
55801;BME280;41730;51.960;20.158;2022-07-11T04:51:06;100098.08;;;14.67;70.86
55801;BME280;41730;51.960;20.158;2022-07-11T04:53:35;100092.70;;;14.65;71.00
55801;BME280;41730;51.960;20.158;2022-07-11T04:56:05;100093.44;;;14.67;71.17
55801;BME280;41730;51.960;20.158;2022-07-11T04:58:35;100087.95;;;14.64;71.39
55801;BME280;41730;51.960;20.158;2022-07-11T05:01:05;100088.77;;;14.82;71.19
55801;BME280;41730;51.960;20.158;2022-07-11T05:03:38;100091.64;;;14.81;71.00
55801;BME280;41730;51.960;20.158;2022-07-11T05:06:07;100092.63;;;14.80;71.02
55801;BME280;41730;51.960;20.158;2022-07-11T05:08:36;100092.49;;;14.92;70.57
55801;BME280;41730;51.960;20.158;2022-07-11T05:11:06;100096.44;;;15.00;70.39
55801;BME280;41730;51.960;20.158;2022-07-11T05:13:35;100093.89;;;15.05;70.39
55801;BME280;41730;51.960;20.158;2022-07-11T05:16:07;100098.93;;;15.17;70.08
55801;BME280;41730;51.960;20.158;2022-07-11T05:18:37;100097.23;;;15.21;69.89
55801;BME280;41730;51.960;20.158;2022-07-11T05:21:06;100102.66;;;15.19;70.06
55801;BME280;41730;51.960;20.158;2022-07-11T05:23:36;100098.10;;;15.35;69.92
55801;BME280;41730;51.960;20.158;2022-07-11T05:26:10;100095.67;;;15.54;69.10
55801;BME280;41730;51.960;20.158;2022-07-11T05:28:44;100105.31;;;15.55;69.18
55801;BME280;41730;51.960;20.158;2022-07-11T05:31:13;100106.59;;;15.69;68.92
55801;BME280;41730;51.960;20.158;2022-07-11T05:33:43;100111.92;;;15.77;68.69
55801;BME280;41730;51.960;20.158;2022-07-11T05:36:13;100117.73;;;15.83;68.43
55801;BME280;41730;51.960;20.158;2022-07-11T05:38:42;100119.20;;;15.81;68.54
55801;BME280;41730;51.960;20.158;2022-07-11T05:41:11;100116.02;;;15.85;68.56
55801;BME280;41730;51.960;20.158;2022-07-11T05:43:40;100122.11;;;15.84;68.49
55801;BME280;41730;51.960;20.158;2022-07-11T05:46:10;100121.21;;;15.74;68.81
55801;BME280;41730;51.960;20.158;2022-07-11T05:48:39;100125.83;;;15.84;68.78
55801;BME280;41730;51.960;20.158;2022-07-11T05:51:08;100121.40;;;15.89;68.42
55801;BME280;41730;51.960;20.158;2022-07-11T05:53:38;100122.30;;;15.95;68.25
55801;BME280;41730;51.960;20.158;2022-07-11T05:56:08;100124.52;;;15.91;68.11
55801;BME280;41730;51.960;20.158;2022-07-11T05:58:37;100120.91;;;16.00;67.95
55801;BME280;41730;51.960;20.158;2022-07-11T06:01:06;100121.56;;;16.09;67.84
55801;BME280;41730;51.960;20.158;2022-07-11T06:03:36;100120.96;;;16.16;67.80
55801;BME280;41730;51.960;20.158;2022-07-11T06:06:06;100126.17;;;16.27;67.68
55801;BME280;41730;51.960;20.158;2022-07-11T06:08:35;100127.30;;;16.33;67.51
55801;BME280;41730;51.960;20.158;2022-07-11T06:11:10;100125.27;;;16.53;67.01
55801;BME280;41730;51.960;20.158;2022-07-11T06:13:41;100127.48;;;16.57;66.85
55801;BME280;41730;51.960;20.158;2022-07-11T06:16:11;100127.88;;;16.49;66.87
55801;BME280;41730;51.960;20.158;2022-07-11T06:18:40;100130.41;;;16.37;67.02
55801;BME280;41730;51.960;20.158;2022-07-11T06:21:10;100137.35;;;16.27;67.23
55801;BME280;41730;51.960;20.158;2022-07-11T06:23:39;100138.60;;;16.22;67.43
55801;BME280;41730;51.960;20.158;2022-07-11T06:26:11;100134.66;;;16.30;67.26
55801;BME280;41730;51.960;20.158;2022-07-11T06:28:40;100135.56;;;16.38;66.48
55801;BME280;41730;51.960;20.158;2022-07-11T06:31:10;100135.48;;;16.34;66.65
55801;BME280;41730;51.960;20.158;2022-07-11T06:33:39;100140.52;;;16.31;66.75
55801;BME280;41730;51.960;20.158;2022-07-11T06:36:09;100143.55;;;16.28;67.00
55801;BME280;41730;51.960;20.158;2022-07-11T06:38:38;100146.39;;;16.30;66.91
55801;BME280;41730;51.960;20.158;2022-07-11T06:41:09;100147.20;;;16.29;66.71
55801;BME280;41730;51.960;20.158;2022-07-11T06:43:39;100147.10;;;16.28;66.73
55801;BME280;41730;51.960;20.158;2022-07-11T06:46:09;100144.54;;;16.22;66.95
55801;BME280;41730;51.960;20.158;2022-07-11T06:48:38;100146.89;;;16.15;66.97
55801;BME280;41730;51.960;20.158;2022-07-11T06:51:07;100146.51;;;16.01;67.42
55801;BME280;41730;51.960;20.158;2022-07-11T06:53:37;100144.72;;;16.04;67.38
55801;BME280;41730;51.960;20.158;2022-07-11T06:56:06;100144.97;;;16.15;67.03
55801;BME280;41730;51.960;20.158;2022-07-11T06:58:36;100142.05;;;16.37;66.91
55801;BME280;41730;51.960;20.158;2022-07-11T07:01:06;100140.61;;;16.65;66.16
55801;BME280;41730;51.960;20.158;2022-07-11T07:03:36;100142.09;;;16.87;65.34
55801;BME280;41730;51.960;20.158;2022-07-11T07:06:07;100142.34;;;17.28;64.82
55801;BME280;41730;51.960;20.158;2022-07-11T07:08:35;100145.88;;;17.59;64.40
55801;BME280;41730;51.960;20.158;2022-07-11T07:11:05;100147.61;;;17.68;64.17
55801;BME280;41730;51.960;20.158;2022-07-11T07:13:37;100150.54;;;17.80;63.19
55801;BME280;41730;51.960;20.158;2022-07-11T07:16:06;100149.90;;;17.73;63.13
55801;BME280;41730;51.960;20.158;2022-07-11T07:18:36;100152.91;;;17.70;62.73
55801;BME280;41730;51.960;20.158;2022-07-11T07:21:10;100151.39;;;17.67;62.92
55801;BME280;41730;51.960;20.158;2022-07-11T07:23:39;100147.45;;;17.90;61.78
55801;BME280;41730;51.960;20.158;2022-07-11T07:26:08;100146.73;;;18.00;61.76
55801;BME280;41730;51.960;20.158;2022-07-11T07:28:37;100146.67;;;18.10;61.46
55801;BME280;41730;51.960;20.158;2022-07-11T07:31:07;100141.12;;;18.06;61.31
55801;BME280;41730;51.960;20.158;2022-07-11T07:33:45;100138.82;;;17.91;61.62
55801;BME280;41730;51.960;20.158;2022-07-11T07:36:15;100140.39;;;17.96;62.06
55801;BME280;41730;51.960;20.158;2022-07-11T07:38:47;100138.54;;;17.98;62.30
55801;BME280;41730;51.960;20.158;2022-07-11T07:41:16;100141.63;;;17.99;62.46
55801;BME280;41730;51.960;20.158;2022-07-11T07:43:47;100141.75;;;17.95;62.69
55801;BME280;41730;51.960;20.158;2022-07-11T07:46:18;100141.83;;;17.94;62.47
55801;BME280;41730;51.960;20.158;2022-07-11T07:48:48;100144.17;;;17.80;62.74
55801;BME280;41730;51.960;20.158;2022-07-11T07:51:17;100145.34;;;17.76;62.72
55801;BME280;41730;51.960;20.158;2022-07-11T07:53:49;100150.40;;;17.66;62.87
55801;BME280;41730;51.960;20.158;2022-07-11T07:56:24;100154.30;;;17.57;63.08
55801;BME280;41730;51.960;20.158;2022-07-11T07:58:54;100159.54;;;17.63;62.64
55801;BME280;41730;51.960;20.158;2022-07-11T08:01:22;100156.30;;;17.63;62.31
55801;BME280;41730;51.960;20.158;2022-07-11T08:04:06;100156.31;;;17.54;61.94
55801;BME280;41730;51.960;20.158;2022-07-11T08:06:37;100156.50;;;17.44;61.73
55801;BME280;41730;51.960;20.158;2022-07-11T08:09:07;100156.95;;;17.33;61.76
55801;BME280;41730;51.960;20.158;2022-07-11T08:11:38;100157.98;;;17.28;61.97
55801;BME280;41730;51.960;20.158;2022-07-11T08:14:08;100158.73;;;17.11;62.27
55801;BME280;41730;51.960;20.158;2022-07-11T08:16:37;100158.20;;;17.02;62.48
55801;BME280;41730;51.960;20.158;2022-07-11T08:19:07;100160.04;;;17.00;62.28
55801;BME280;41730;51.960;20.158;2022-07-11T08:21:38;100160.80;;;16.86;62.53
55801;BME280;41730;51.960;20.158;2022-07-11T08:24:10;100161.86;;;16.83;62.46
55801;BME280;41730;51.960;20.158;2022-07-11T08:26:39;100166.70;;;16.94;62.32
55801;BME280;41730;51.960;20.158;2022-07-11T08:29:09;100164.52;;;16.98;62.43
55801;BME280;41730;51.960;20.158;2022-07-11T08:31:38;100169.08;;;17.00;62.43
55801;BME280;41730;51.960;20.158;2022-07-11T08:34:08;100161.92;;;16.97;63.01
55801;BME280;41730;51.960;20.158;2022-07-11T08:36:44;100159.98;;;17.12;62.96
55801;BME280;41730;51.960;20.158;2022-07-11T08:39:18;100156.23;;;17.37;62.68
55801;BME280;41730;51.960;20.158;2022-07-11T08:41:55;100155.53;;;17.64;62.41
55801;BME280;41730;51.960;20.158;2022-07-11T08:44:36;100149.14;;;17.83;62.29
55801;BME280;41730;51.960;20.158;2022-07-11T08:47:24;100150.58;;;18.09;60.85
55801;BME280;41730;51.960;20.158;2022-07-11T08:49:53;100148.94;;;18.35;59.70
55801;BME280;41730;51.960;20.158;2022-07-11T08:52:23;100150.17;;;18.69;58.93
55801;BME280;41730;51.960;20.158;2022-07-11T08:54:55;100142.12;;;18.83;58.23
55801;BME280;41730;51.960;20.158;2022-07-11T08:57:31;100134.57;;;19.12;58.03
55801;BME280;41730;51.960;20.158;2022-07-11T09:00:02;100133.78;;;19.41;57.41
55801;BME280;41730;51.960;20.158;2022-07-11T09:02:42;100130.30;;;19.61;56.20
55801;BME280;41730;51.960;20.158;2022-07-11T09:05:23;100130.87;;;19.81;56.06
55801;BME280;41730;51.960;20.158;2022-07-11T09:07:56;100130.46;;;19.81;55.04
55801;BME280;41730;51.960;20.158;2022-07-11T09:10:25;100128.50;;;19.62;53.73
55801;BME280;41730;51.960;20.158;2022-07-11T09:13:02;100130.02;;;19.35;54.09
55801;BME280;41730;51.960;20.158;2022-07-11T09:15:39;100134.10;;;19.07;54.17
55801;BME280;41730;51.960;20.158;2022-07-11T09:18:32;100139.17;;;18.93;54.67
55801;BME280;41730;51.960;20.158;2022-07-11T09:21:02;100136.94;;;18.97;54.41
55801;BME280;41730;51.960;20.158;2022-07-11T09:23:50;100137.41;;;18.75;54.70
55801;BME280;41730;51.960;20.158;2022-07-11T09:26:44;100142.87;;;18.49;55.40
55801;BME280;41730;51.960;20.158;2022-07-11T09:29:14;100143.20;;;18.30;56.27
55801;BME280;41730;51.960;20.158;2022-07-11T09:31:44;100139.57;;;18.26;56.62
55801;BME280;41730;51.960;20.158;2022-07-11T09:34:16;100144.58;;;18.41;56.62
55801;BME280;41730;51.960;20.158;2022-07-11T09:36:47;100139.14;;;18.49;56.28
55801;BME280;41730;51.960;20.158;2022-07-11T09:39:17;100136.55;;;18.56;56.21
55801;BME280;41730;51.960;20.158;2022-07-11T09:41:54;100136.30;;;18.79;55.74
55801;BME280;41730;51.960;20.158;2022-07-11T09:44:25;100135.69;;;19.01;55.37
55801;BME280;41730;51.960;20.158;2022-07-11T09:46:57;100123.69;;;19.14;54.90
55801;BME280;41730;51.960;20.158;2022-07-11T09:49:33;100120.73;;;19.40;54.66
55801;BME280;41730;51.960;20.158;2022-07-11T09:52:11;100116.61;;;19.69;54.41
55801;BME280;41730;51.960;20.158;2022-07-11T09:54:54;100117.45;;;20.07;53.68
55801;BME280;41730;51.960;20.158;2022-07-11T09:57:30;100116.19;;;20.22;53.50
55801;BME280;41730;51.960;20.158;2022-07-11T10:00:00;100118.52;;;20.34;53.17
55801;BME280;41730;51.960;20.158;2022-07-11T10:02:30;100121.33;;;20.40;51.83
55801;BME280;41730;51.960;20.158;2022-07-11T10:05:00;100125.77;;;20.47;51.10
55801;BME280;41730;51.960;20.158;2022-07-11T10:07:30;100120.08;;;20.53;50.53
55801;BME280;41730;51.960;20.158;2022-07-11T10:10:00;100124.19;;;20.44;50.93
55801;BME280;41730;51.960;20.158;2022-07-11T10:12:31;100123.79;;;20.39;51.05
55801;BME280;41730;51.960;20.158;2022-07-11T10:15:02;100127.30;;;20.42;51.02
55801;BME280;41730;51.960;20.158;2022-07-11T10:17:41;100123.11;;;20.57;51.35
55801;BME280;41730;51.960;20.158;2022-07-11T10:20:19;100117.42;;;20.95;50.97
55801;BME280;41730;51.960;20.158;2022-07-11T10:22:56;100113.88;;;21.20;49.34
55801;BME280;41730;51.960;20.158;2022-07-11T10:25:33;100119.54;;;21.30;49.16
55801;BME280;41730;51.960;20.158;2022-07-11T10:28:11;100122.55;;;21.10;48.42
55801;BME280;41730;51.960;20.158;2022-07-11T10:30:45;100125.95;;;20.90;49.08
55801;BME280;41730;51.960;20.158;2022-07-11T10:33:16;100125.60;;;20.76;49.61
55801;BME280;41730;51.960;20.158;2022-07-11T10:35:46;100125.23;;;20.58;50.30
55801;BME280;41730;51.960;20.158;2022-07-11T10:38:16;100128.52;;;20.46;50.68
55801;BME280;41730;51.960;20.158;2022-07-11T10:40:50;100125.57;;;20.36;50.62
55801;BME280;41730;51.960;20.158;2022-07-11T10:43:34;100124.64;;;20.34;50.36
55801;BME280;41730;51.960;20.158;2022-07-11T10:46:07;100116.29;;;20.43;50.57
55801;BME280;41730;51.960;20.158;2022-07-11T10:48:55;100114.44;;;20.57;50.51
55801;BME280;41730;51.960;20.158;2022-07-11T10:51:33;100111.20;;;20.81;50.00
55801;BME280;41730;51.960;20.158;2022-07-11T10:54:32;100113.80;;;20.89;49.63
55801;BME280;41730;51.960;20.158;2022-07-11T10:57:16;100114.46;;;20.77;50.25
55801;BME280;41730;51.960;20.158;2022-07-11T10:59:57;100115.93;;;20.87;50.22
55801;BME280;41730;51.960;20.158;2022-07-11T11:02:27;100116.89;;;20.97;49.87
55801;BME280;41730;51.960;20.158;2022-07-11T11:04:57;100106.29;;;20.85;50.54
55801;BME280;41730;51.960;20.158;2022-07-11T11:07:31;100110.21;;;20.67;50.99
55801;BME280;41730;51.960;20.158;2022-07-11T11:10:01;100113.52;;;20.63;51.21
55801;BME280;41730;51.960;20.158;2022-07-11T11:15:40;100120.39;;;20.66;49.17
55801;BME280;41730;51.960;20.158;2022-07-11T11:18:34;100131.83;;;20.49;49.36
55801;BME280;41730;51.960;20.158;2022-07-11T11:21:24;100136.73;;;20.30;49.85
55801;BME280;41730;51.960;20.158;2022-07-11T11:24:04;100138.50;;;20.17;50.41
55801;BME280;41730;51.960;20.158;2022-07-11T11:26:50;100136.92;;;20.22;49.98
55801;BME280;41730;51.960;20.158;2022-07-11T11:29:24;100141.33;;;20.24;50.00
55801;BME280;41730;51.960;20.158;2022-07-11T11:31:54;100144.83;;;20.17;49.91
55801;BME280;41730;51.960;20.158;2022-07-11T11:34:24;100148.55;;;20.12;49.98
55801;BME280;41730;51.960;20.158;2022-07-11T11:36:56;100146.38;;;20.17;50.14
55801;BME280;41730;51.960;20.158;2022-07-11T11:39:39;100146.69;;;20.23;50.50
55801;BME280;41730;51.960;20.158;2022-07-11T11:42:15;100143.33;;;20.27;50.58
55801;BME280;41730;51.960;20.158;2022-07-11T11:44:56;100146.58;;;20.34;50.27
55801;BME280;41730;51.960;20.158;2022-07-11T11:47:32;100144.97;;;20.19;50.15
55801;BME280;41730;51.960;20.158;2022-07-11T11:50:09;100136.13;;;20.13;50.50
55801;BME280;41730;51.960;20.158;2022-07-11T11:52:39;100127.44;;;20.30;50.00
55801;BME280;41730;51.960;20.158;2022-07-11T11:55:11;100122.98;;;20.64;49.32
55801;BME280;41730;51.960;20.158;2022-07-11T11:57:41;100120.02;;;20.76;48.10
55801;BME280;41730;51.960;20.158;2022-07-11T12:00:22;100121.08;;;20.89;47.83
55801;BME280;41730;51.960;20.158;2022-07-11T12:03:14;100123.33;;;21.03;47.77
55801;BME280;41730;51.960;20.158;2022-07-11T12:05:55;100119.27;;;21.09;47.87
55801;BME280;41730;51.960;20.158;2022-07-11T12:08:29;100126.92;;;21.13;47.29
55801;BME280;41730;51.960;20.158;2022-07-11T12:10:59;100129.15;;;21.21;47.08
55801;BME280;41730;51.960;20.158;2022-07-11T12:13:35;100127.95;;;21.35;46.11
55801;BME280;41730;51.960;20.158;2022-07-11T12:16:12;100125.88;;;21.57;46.12
55801;BME280;41730;51.960;20.158;2022-07-11T12:19:02;100120.34;;;21.79;46.60
55801;BME280;41730;51.960;20.158;2022-07-11T12:21:31;100121.91;;;21.84;47.26
55801;BME280;41730;51.960;20.158;2022-07-11T12:24:02;100124.86;;;21.95;47.10
55801;BME280;41730;51.960;20.158;2022-07-11T12:26:34;100127.56;;;21.89;47.34
55801;BME280;41730;51.960;20.158;2022-07-11T12:29:08;100130.80;;;21.79;47.23
55801;BME280;41730;51.960;20.158;2022-07-11T12:31:46;100141.19;;;21.72;47.34
55801;BME280;41730;51.960;20.158;2022-07-11T12:34:17;100140.16;;;21.58;47.63
55801;BME280;41730;51.960;20.158;2022-07-11T12:36:47;100151.61;;;21.26;48.31
55801;BME280;41730;51.960;20.158;2022-07-11T12:39:23;100153.33;;;21.11;48.43
55801;BME280;41730;51.960;20.158;2022-07-11T12:41:53;100155.16;;;20.86;49.06
55801;BME280;41730;51.960;20.158;2022-07-11T12:44:24;100162.45;;;20.58;51.55
55801;BME280;41730;51.960;20.158;2022-07-11T12:47:11;100170.09;;;20.02;54.74
55801;BME280;41730;51.960;20.158;2022-07-11T12:49:40;100174.33;;;19.41;57.17
55801;BME280;41730;51.960;20.158;2022-07-11T12:52:13;100181.92;;;18.87;60.72
55801;BME280;41730;51.960;20.158;2022-07-11T12:54:42;100182.98;;;18.14;63.42
55801;BME280;41730;51.960;20.158;2022-07-11T12:57:16;100181.41;;;17.56;64.71
55801;BME280;41730;51.960;20.158;2022-07-11T12:59:45;100186.48;;;17.20;66.43
55801;BME280;41730;51.960;20.158;2022-07-11T13:02:15;100189.64;;;16.88;67.31
55801;BME280;41730;51.960;20.158;2022-07-11T13:04:47;100196.58;;;16.81;67.85
55801;BME280;41730;51.960;20.158;2022-07-11T13:07:27;100200.95;;;16.77;68.51
55801;BME280;41730;51.960;20.158;2022-07-11T13:10:17;100201.14;;;16.67;68.09
55801;BME280;41730;51.960;20.158;2022-07-11T13:12:48;100204.04;;;16.65;68.17
55801;BME280;41730;51.960;20.158;2022-07-11T13:15:18;100201.58;;;16.61;68.68
55801;BME280;41730;51.960;20.158;2022-07-11T13:17:49;100201.45;;;16.69;68.52